Terminal Aerodrome Forecast
Issued by NWS

Home | Current Version | Previous Version | Graphics & Text | Print | Product List | Glossary On
Versions: 1 2 3 4 5 6 7 8 9 10 11 12 13 14 15 16 17 18 19 20
000
FTUS43 KTOP 170500
TAFMHK
TAF
KMHK 170529Z 1706/1806 36005KT P6SM BKN018
     FM170800 35004KT P6SM SCT018 SCT250
     FM171500 08004KT P6SM BKN150
     FM180300 09006KT 4SM BR OVC015=

USA.gov is the U.S. government's official web portal to all federal, state and local government web resources and services.